Airfield :
LOGIN :

Register | Disclaimer

   EN    FR    IT 

 










Legend :    VFR   Marginal VFR   IFR   Intensive IFR   Very Intensive IFR
Visi :
Ceiling :
>= 8 km
>= 3000ft
5 to 8 km
1000 to 3000 ft
1500m to 5 km
500 to 1000 ft
800 to 1500m
200 to 500 ft
< 800m
< 200 ft
Symbols :   Thunderstorms  Fog  Heavy snow  Heavy precipitations  Wind > 20 kt
SIGMETs :     Misc.  Thunderstorms  Icing  Turbulence  Mountain Waves  Volcanic Ashes







- Airport Elevation : 45 ft
- IATA code : CEG
- Download approach charts


EGNR - Hawarden Chester

CURRENT METAR :
  • 211720Z 27015KT 240V300 9999 6000SW -RA VCSH FEW014 SCT020 14/10 Q0993

EXPIRED METARs :
  • 211650Z 26013KT 9999 -RA VCSH FEW014 SCT020 12/10 Q0992 RESHRA
  • 211620Z 25014KT 9999 VCSH SCT012 SCT025 14/10 Q0991
  • 211550Z 24018KT 9999 6000N SHRA SCT012 SCT035 13/11 Q0990
  • 211520Z 23019G33KT 8000 -RA SCT012 BKN035 13/11 Q0990 RESHRA
  • 211450Z 21021KT 8000 SHRA SCT012 BKN035 13/11 Q0989

TAF TAF EGNR
Valid from the 21 at 15:00 until the 21 at 18:00 UTC


211359Z 2115/2118 18020G30KT 9999 FEW020
BECMG 2115/2117 26022G32KT
TEMPO 2115/2118 27030G42KT 4000 +SHRA BKN010
No reported NOTAMs for that airfield.
2 SIGMETs reported for the London FIR (EGTT) :
 
Severe turbulence
EGTT SIGMET 05 VALID 211800/212200 EGRR
EGTT LONDON FIR SEV TURB FCST SE OF LINE N5500 W00059 - N5332 W00530 SFC/FL060 STNR WKN=
Severe turbulence
EGTT SIGMET 04 VALID 211400/211800 EGRR
EGTT LONDON FIR SEV TURB FCST S OF N5400 SFC/FL060 STNR WKN=



MET'MAP, your aeronautical weather chart ! - Copyright ORBIFLY December 2007 - Disclaimer

ORBIFLY MET'MAP TEAM :

Programming & Development : Alexandra Zaïnal
Concept & Development : Baudouin d'Aumeries
Co-Development & Prog : Marc-Olivier Méhu
Technical & hardware support : Manuel Goepfert

Contact : metmap@orbifly.com




SOURCES & CREDITS :

   NOAA